sensor_id;sensor_type;location;lat;lon;timestamp;pressure;altitude;pressure_sealevel;temperature
20289;BMP180;10303;51.960;8.372;2022-12-15T10:58:52;99820.00;;;6.50
20289;BMP180;10303;51.960;8.372;2022-12-15T11:01:25;99811.00;;;6.80
20289;BMP180;10303;51.960;8.372;2022-12-15T11:03:52;99813.00;;;6.90
20289;BMP180;10303;51.960;8.372;2022-12-15T11:06:32;99807.00;;;7.00
20289;BMP180;10303;51.960;8.372;2022-12-15T11:09:37;99784.00;;;7.10
20289;BMP180;10303;51.960;8.372;2022-12-15T11:12:30;99805.00;;;7.30
20289;BMP180;10303;51.960;8.372;2022-12-15T11:18:31;99820.00;;;7.90
20289;BMP180;10303;51.960;8.372;2022-12-15T11:21:24;99824.00;;;8.10
20289;BMP180;10303;51.960;8.372;2022-12-15T11:24:11;99807.00;;;8.20
20289;BMP180;10303;51.960;8.372;2022-12-15T11:26:53;99818.00;;;8.50
20289;BMP180;10303;51.960;8.372;2022-12-15T11:32:25;99813.00;;;9.00
20289;BMP180;10303;51.960;8.372;2022-12-15T11:34:53;99795.00;;;9.40
20289;BMP180;10303;51.960;8.372;2022-12-15T11:37:51;99807.00;;;9.60
20289;BMP180;10303;51.960;8.372;2022-12-15T11:40:42;99793.00;;;9.90
20289;BMP180;10303;51.960;8.372;2022-12-15T11:43:29;99803.00;;;10.10
20289;BMP180;10303;51.960;8.372;2022-12-15T12:17:46;99793.00;;;11.70
20289;BMP180;10303;51.960;8.372;2022-12-15T12:20:22;99769.00;;;11.80
20289;BMP180;10303;51.960;8.372;2022-12-15T12:25:26;99778.00;;;12.30
20289;BMP180;10303;51.960;8.372;2022-12-15T12:28:01;99788.00;;;12.60
20289;BMP180;10303;51.960;8.372;2022-12-15T12:30:42;99787.00;;;12.90
20289;BMP180;10303;51.960;8.372;2022-12-15T12:33:37;99785.00;;;13.10
20289;BMP180;10303;51.960;8.372;2022-12-15T12:36:13;99777.00;;;13.30
20289;BMP180;10303;51.960;8.372;2022-12-15T12:38:47;99787.00;;;13.50
20289;BMP180;10303;51.960;8.372;2022-12-15T12:41:43;99781.00;;;13.80
20289;BMP180;10303;51.960;8.372;2022-12-15T12:44:30;99773.00;;;14.00
20289;BMP180;10303;51.960;8.372;2022-12-15T12:47:15;99770.00;;;14.10
20289;BMP180;10303;51.960;8.372;2022-12-15T12:49:53;99780.00;;;14.30
20289;BMP180;10303;51.960;8.372;2022-12-15T12:52:30;99769.00;;;14.50
20289;BMP180;10303;51.960;8.372;2022-12-15T12:57:42;99778.00;;;14.80
20289;BMP180;10303;51.960;8.372;2022-12-15T13:05:40;99780.00;;;14.90
20289;BMP180;10303;51.960;8.372;2022-12-15T13:10:39;99776.00;;;14.70
20289;BMP180;10303;51.960;8.372;2022-12-15T13:16:22;99768.00;;;14.50
20289;BMP180;10303;51.960;8.372;2022-12-15T13:19:02;99762.00;;;14.30
20289;BMP180;10303;51.960;8.372;2022-12-15T13:24:35;99762.00;;;13.80
20289;BMP180;10303;51.960;8.372;2022-12-15T13:29:59;99753.00;;;13.10
20289;BMP180;10303;51.960;8.372;2022-12-15T13:38:01;99740.00;;;11.70
20289;BMP180;10303;51.960;8.372;2022-12-15T13:46:00;99734.00;;;11.10
20289;BMP180;10303;51.960;8.372;2022-12-15T13:48:46;99724.00;;;10.80
20289;BMP180;10303;51.960;8.372;2022-12-15T13:51:31;99736.00;;;10.50
20289;BMP180;10303;51.960;8.372;2022-12-15T13:54:21;99742.00;;;10.20
20289;BMP180;10303;51.960;8.372;2022-12-15T13:57:01;99737.00;;;9.90
20289;BMP180;10303;51.960;8.372;2022-12-15T13:59:48;99727.00;;;9.70
20289;BMP180;10303;51.960;8.372;2022-12-15T14:02:32;99734.00;;;9.60
20289;BMP180;10303;51.960;8.372;2022-12-15T14:05:19;99728.00;;;9.40
20289;BMP180;10303;51.960;8.372;2022-12-15T14:10:50;99730.00;;;9.10
20289;BMP180;10303;51.960;8.372;2022-12-15T14:15:59;99717.00;;;8.90
20289;BMP180;10303;51.960;8.372;2022-12-15T14:18:36;99721.00;;;8.80
20289;BMP180;10303;51.960;8.372;2022-12-15T14:21:24;99715.00;;;8.60
20289;BMP180;10303;51.960;8.372;2022-12-15T14:23:56;99721.00;;;8.60
20289;BMP180;10303;51.960;8.372;2022-12-15T14:26:27;99710.00;;;8.60
20289;BMP180;10303;51.960;8.372;2022-12-15T14:29:05;99710.00;;;8.50
20289;BMP180;10303;51.960;8.372;2022-12-15T14:31:32;99714.00;;;8.50
20289;BMP180;10303;51.960;8.372;2022-12-15T14:34:14;99724.00;;;8.50
20289;BMP180;10303;51.960;8.372;2022-12-15T14:36:44;99716.00;;;8.40
20289;BMP180;10303;51.960;8.372;2022-12-15T14:39:38;99720.00;;;8.30
20289;BMP180;10303;51.960;8.372;2022-12-15T14:42:06;99708.00;;;8.20
20289;BMP180;10303;51.960;8.372;2022-12-15T14:44:44;99716.00;;;8.10
20289;BMP180;10303;51.960;8.372;2022-12-15T14:47:55;99697.00;;;7.90
20289;BMP180;10303;51.960;8.372;2022-12-15T14:50:25;99702.00;;;7.80
20289;BMP180;10303;51.960;8.372;2022-12-15T14:53:02;99703.00;;;7.60
20289;BMP180;10303;51.960;8.372;2022-12-15T14:55:30;99696.00;;;7.50
20289;BMP180;10303;51.960;8.372;2022-12-15T14:57:57;99699.00;;;7.30
20289;BMP180;10303;51.960;8.372;2022-12-15T15:00:32;99690.00;;;7.10
20289;BMP180;10303;51.960;8.372;2022-12-15T15:05:42;99687.00;;;6.70
20289;BMP180;10303;51.960;8.372;2022-12-15T15:08:33;99692.00;;;6.50
20289;BMP180;10303;51.960;8.372;2022-12-15T15:13:52;99676.00;;;6.20
20289;BMP180;10303;51.960;8.372;2022-12-15T15:16:20;99685.00;;;6.10
20289;BMP180;10303;51.960;8.372;2022-12-15T15:18:54;99683.00;;;5.90
20289;BMP180;10303;51.960;8.372;2022-12-15T15:21:27;99673.00;;;5.80
20289;BMP180;10303;51.960;8.372;2022-12-15T15:26:40;99669.00;;;5.50
20289;BMP180;10303;51.960;8.372;2022-12-15T15:29:41;99681.00;;;5.30
20289;BMP180;10303;51.960;8.372;2022-12-15T15:32:21;99679.00;;;5.20
20289;BMP180;10303;51.960;8.372;2022-12-15T15:34:48;99679.00;;;5.10
20289;BMP180;10303;51.960;8.372;2022-12-15T15:37:23;99669.00;;;4.90
20289;BMP180;10303;51.960;8.372;2022-12-15T15:39:53;99692.00;;;4.90
20289;BMP180;10303;51.960;8.372;2022-12-15T15:42:25;99690.00;;;4.70
20289;BMP180;10303;51.960;8.372;2022-12-15T15:45:12;99666.00;;;4.60
20289;BMP180;10303;51.960;8.372;2022-12-15T15:49:13;99683.00;;;4.40
20289;BMP180;10303;51.960;8.372;2022-12-15T15:57:37;99654.00;;;3.90
20289;BMP180;10303;51.960;8.372;2022-12-15T16:13:02;99678.00;;;3.40
20289;BMP180;10303;51.960;8.372;2022-12-15T16:15:31;99652.00;;;3.20
20289;BMP180;10303;51.960;8.372;2022-12-15T16:18:29;99689.00;;;3.20
20289;BMP180;10303;51.960;8.372;2022-12-15T16:20:58;99694.00;;;3.10
20289;BMP180;10303;51.960;8.372;2022-12-15T16:23:45;99681.00;;;3.00
20289;BMP180;10303;51.960;8.372;2022-12-15T16:26:25;99694.00;;;2.90
20289;BMP180;10303;51.960;8.372;2022-12-15T16:28:56;99683.00;;;2.90
20289;BMP180;10303;51.960;8.372;2022-12-15T16:31:34;99692.00;;;2.80
20289;BMP180;10303;51.960;8.372;2022-12-15T16:34:04;99702.00;;;2.70
20289;BMP180;10303;51.960;8.372;2022-12-15T16:36:32;99716.00;;;2.70
20289;BMP180;10303;51.960;8.372;2022-12-15T16:39:01;99715.00;;;2.60
20289;BMP180;10303;51.960;8.372;2022-12-15T16:41:28;99720.00;;;2.50
20289;BMP180;10303;51.960;8.372;2022-12-15T16:43:56;99723.00;;;2.40
20289;BMP180;10303;51.960;8.372;2022-12-15T16:46:23;99703.00;;;2.30
20289;BMP180;10303;51.960;8.372;2022-12-15T16:48:49;99720.00;;;2.30
20289;BMP180;10303;51.960;8.372;2022-12-15T16:52:13;99716.00;;;2.10
20289;BMP180;10303;51.960;8.372;2022-12-15T16:55:40;99720.00;;;2.00
20289;BMP180;10303;51.960;8.372;2022-12-15T16:58:42;99710.00;;;1.90
20289;BMP180;10303;51.960;8.372;2022-12-15T17:03:10;99723.00;;;1.70
20289;BMP180;10303;51.960;8.372;2022-12-15T18:15:51;99794.00;;;0.10
20289;BMP180;10303;51.960;8.372;2022-12-15T18:18:19;99800.00;;;0.00
20289;BMP180;10303;51.960;8.372;2022-12-15T18:20:46;99805.00;;;0.00
20289;BMP180;10303;51.960;8.372;2022-12-15T18:23:26;99789.00;;;0.00
20289;BMP180;10303;51.960;8.372;2022-12-15T18:25:55;99798.00;;;0.00
20289;BMP180;10303;51.960;8.372;2022-12-15T18:28:29;99779.00;;;0.00
20289;BMP180;10303;51.960;8.372;2022-12-15T18:31:23;99807.00;;;0.00
20289;BMP180;10303;51.960;8.372;2022-12-15T18:33:55;99766.00;;;0.00
20289;BMP180;10303;51.960;8.372;2022-12-15T18:36:22;99783.00;;;-0.10
20289;BMP180;10303;51.960;8.372;2022-12-15T18:38:49;99792.00;;;-0.10
20289;BMP180;10303;51.960;8.372;2022-12-15T18:41:18;99787.00;;;-0.20
20289;BMP180;10303;51.960;8.372;2022-12-15T18:44:04;99797.00;;;-0.20
20289;BMP180;10303;51.960;8.372;2022-12-15T18:46:34;99781.00;;;-0.30
20289;BMP180;10303;51.960;8.372;2022-12-15T18:49:00;99797.00;;;-0.30
20289;BMP180;10303;51.960;8.372;2022-12-15T18:51:26;99787.00;;;-0.40
20289;BMP180;10303;51.960;8.372;2022-12-15T18:53:52;99780.00;;;-0.40
20289;BMP180;10303;51.960;8.372;2022-12-15T18:56:24;99795.00;;;-0.60
20289;BMP180;10303;51.960;8.372;2022-12-15T19:02:18;99778.00;;;-0.70
